sensor_id;sensor_type;location;lat;lon;timestamp;P1;durP1;ratioP1;P2;durP2;ratioP2
14883;SDS011;7534;50.762;7.000;2023-03-01T00:01:12;14.43;;;9.50;;
14883;SDS011;7534;50.762;7.000;2023-03-01T00:03:45;14.27;;;8.83;;
14883;SDS011;7534;50.762;7.000;2023-03-01T00:06:11;12.10;;;8.77;;
14883;SDS011;7534;50.762;7.000;2023-03-01T00:08:37;15.07;;;9.23;;
14883;SDS011;7534;50.762;7.000;2023-03-01T00:11:13;12.57;;;8.50;;
14883;SDS011;7534;50.762;7.000;2023-03-01T00:13:43;13.63;;;8.70;;
14883;SDS011;7534;50.762;7.000;2023-03-01T00:16:21;11.40;;;7.87;;
14883;SDS011;7534;50.762;7.000;2023-03-01T00:18:53;12.63;;;8.37;;
14883;SDS011;7534;50.762;7.000;2023-03-01T00:21:20;15.20;;;8.57;;
14883;SDS011;7534;50.762;7.000;2023-03-01T00:23:47;12.07;;;7.97;;
14883;SDS011;7534;50.762;7.000;2023-03-01T00:26:15;12.50;;;8.53;;
14883;SDS011;7534;50.762;7.000;2023-03-01T00:28:42;13.67;;;9.03;;
14883;SDS011;7534;50.762;7.000;2023-03-01T00:31:16;14.37;;;8.77;;
14883;SDS011;7534;50.762;7.000;2023-03-01T00:33:46;13.60;;;9.07;;
14883;SDS011;7534;50.762;7.000;2023-03-01T00:36:13;13.23;;;8.10;;
14883;SDS011;7534;50.762;7.000;2023-03-01T00:38:41;14.60;;;9.37;;
14883;SDS011;7534;50.762;7.000;2023-03-01T00:41:13;16.20;;;9.60;;
14883;SDS011;7534;50.762;7.000;2023-03-01T00:43:42;14.40;;;9.80;;
14883;SDS011;7534;50.762;7.000;2023-03-01T00:46:10;12.67;;;9.50;;
14883;SDS011;7534;50.762;7.000;2023-03-01T00:48:47;14.53;;;9.37;;
14883;SDS011;7534;50.762;7.000;2023-03-01T00:51:14;12.50;;;9.03;;
14883;SDS011;7534;50.762;7.000;2023-03-01T00:53:45;15.73;;;9.10;;
14883;SDS011;7534;50.762;7.000;2023-03-01T00:56:13;14.87;;;8.90;;
14883;SDS011;7534;50.762;7.000;2023-03-01T00:58:40;18.47;;;10.17;;
14883;SDS011;7534;50.762;7.000;2023-03-01T01:01:13;13.60;;;9.77;;
14883;SDS011;7534;50.762;7.000;2023-03-01T01:03:46;13.83;;;9.07;;
14883;SDS011;7534;50.762;7.000;2023-03-01T01:06:28;15.90;;;9.50;;
14883;SDS011;7534;50.762;7.000;2023-03-01T01:09:04;12.20;;;8.60;;
14883;SDS011;7534;50.762;7.000;2023-03-01T01:11:31;13.73;;;9.30;;
14883;SDS011;7534;50.762;7.000;2023-03-01T01:14:00;14.27;;;9.07;;
14883;SDS011;7534;50.762;7.000;2023-03-01T01:16:26;14.10;;;9.10;;
14883;SDS011;7534;50.762;7.000;2023-03-01T01:18:54;14.27;;;8.93;;
14883;SDS011;7534;50.762;7.000;2023-03-01T01:21:22;13.00;;;8.53;;
14883;SDS011;7534;50.762;7.000;2023-03-01T01:23:49;14.60;;;9.57;;
14883;SDS011;7534;50.762;7.000;2023-03-01T01:26:16;14.50;;;8.80;;
14883;SDS011;7534;50.762;7.000;2023-03-01T01:28:48;16.60;;;9.37;;
14883;SDS011;7534;50.762;7.000;2023-03-01T01:31:15;16.77;;;9.20;;
14883;SDS011;7534;50.762;7.000;2023-03-01T01:33:41;14.23;;;8.83;;
14883;SDS011;7534;50.762;7.000;2023-03-01T01:36:07;14.93;;;9.30;;
14883;SDS011;7534;50.762;7.000;2023-03-01T01:38:34;13.73;;;9.37;;
14883;SDS011;7534;50.762;7.000;2023-03-01T01:41:02;11.80;;;8.40;;
14883;SDS011;7534;50.762;7.000;2023-03-01T01:43:30;12.77;;;9.30;;
14883;SDS011;7534;50.762;7.000;2023-03-01T01:46:03;13.73;;;8.47;;
14883;SDS011;7534;50.762;7.000;2023-03-01T01:48:45;13.47;;;8.43;;
14883;SDS011;7534;50.762;7.000;2023-03-01T01:51:22;12.27;;;8.50;;
14883;SDS011;7534;50.762;7.000;2023-03-01T01:54:03;14.40;;;8.90;;
14883;SDS011;7534;50.762;7.000;2023-03-01T01:56:37;14.00;;;8.33;;
14883;SDS011;7534;50.762;7.000;2023-03-01T01:59:09;12.97;;;8.17;;
14883;SDS011;7534;50.762;7.000;2023-03-01T02:01:36;15.40;;;8.53;;
14883;SDS011;7534;50.762;7.000;2023-03-01T02:04:04;13.00;;;8.83;;
14883;SDS011;7534;50.762;7.000;2023-03-01T02:06:32;12.33;;;8.00;;
14883;SDS011;7534;50.762;7.000;2023-03-01T02:09:06;13.67;;;8.60;;
14883;SDS011;7534;50.762;7.000;2023-03-01T02:11:38;11.53;;;7.93;;
14883;SDS011;7534;50.762;7.000;2023-03-01T02:14:04;12.77;;;8.63;;
14883;SDS011;7534;50.762;7.000;2023-03-01T02:16:31;12.30;;;8.07;;
14883;SDS011;7534;50.762;7.000;2023-03-01T02:18:57;11.50;;;8.17;;
14883;SDS011;7534;50.762;7.000;2023-03-01T02:21:30;14.27;;;8.60;;
14883;SDS011;7534;50.762;7.000;2023-03-01T02:24:15;13.50;;;8.63;;
14883;SDS011;7534;50.762;7.000;2023-03-01T02:27:12;12.07;;;7.70;;
14883;SDS011;7534;50.762;7.000;2023-03-01T02:29:38;12.73;;;8.27;;
14883;SDS011;7534;50.762;7.000;2023-03-01T02:32:04;13.47;;;8.13;;
14883;SDS011;7534;50.762;7.000;2023-03-01T02:34:30;14.03;;;8.03;;
14883;SDS011;7534;50.762;7.000;2023-03-01T02:37:02;14.97;;;8.97;;
14883;SDS011;7534;50.762;7.000;2023-03-01T02:39:39;12.67;;;8.33;;
14883;SDS011;7534;50.762;7.000;2023-03-01T02:42:14;11.43;;;7.57;;
14883;SDS011;7534;50.762;7.000;2023-03-01T02:44:48;13.80;;;8.07;;
14883;SDS011;7534;50.762;7.000;2023-03-01T02:47:14;13.53;;;8.37;;
14883;SDS011;7534;50.762;7.000;2023-03-01T02:49:40;14.80;;;8.47;;
14883;SDS011;7534;50.762;7.000;2023-03-01T02:52:14;14.30;;;8.97;;
14883;SDS011;7534;50.762;7.000;2023-03-01T02:55:10;10.57;;;7.30;;
14883;SDS011;7534;50.762;7.000;2023-03-01T02:57:43;12.33;;;8.10;;
14883;SDS011;7534;50.762;7.000;2023-03-01T03:00:11;15.13;;;8.00;;
14883;SDS011;7534;50.762;7.000;2023-03-01T03:02:44;12.40;;;7.80;;
14883;SDS011;7534;50.762;7.000;2023-03-01T03:05:14;13.10;;;8.67;;
14883;SDS011;7534;50.762;7.000;2023-03-01T03:07:43;13.37;;;8.13;;
14883;SDS011;7534;50.762;7.000;2023-03-01T03:10:16;12.73;;;8.50;;
14883;SDS011;7534;50.762;7.000;2023-03-01T03:12:50;11.67;;;7.90;;
14883;SDS011;7534;50.762;7.000;2023-03-01T03:15:22;13.40;;;8.07;;
14883;SDS011;7534;50.762;7.000;2023-03-01T03:17:50;14.07;;;8.30;;
14883;SDS011;7534;50.762;7.000;2023-03-01T03:20:19;14.10;;;8.13;;
14883;SDS011;7534;50.762;7.000;2023-03-01T03:22:52;13.50;;;8.47;;
14883;SDS011;7534;50.762;7.000;2023-03-01T03:25:20;12.53;;;8.73;;
14883;SDS011;7534;50.762;7.000;2023-03-01T03:27:48;13.03;;;7.83;;
14883;SDS011;7534;50.762;7.000;2023-03-01T03:30:21;13.73;;;8.10;;
14883;SDS011;7534;50.762;7.000;2023-03-01T03:32:54;13.60;;;8.87;;
14883;SDS011;7534;50.762;7.000;2023-03-01T03:35:38;15.27;;;8.90;;
14883;SDS011;7534;50.762;7.000;2023-03-01T03:38:11;14.33;;;8.37;;
14883;SDS011;7534;50.762;7.000;2023-03-01T03:40:46;12.30;;;8.23;;
14883;SDS011;7534;50.762;7.000;2023-03-01T03:43:21;15.13;;;8.27;;
14883;SDS011;7534;50.762;7.000;2023-03-01T03:45:49;12.90;;;8.63;;
14883;SDS011;7534;50.762;7.000;2023-03-01T03:48:16;14.20;;;8.83;;
14883;SDS011;7534;50.762;7.000;2023-03-01T03:50:46;13.83;;;8.53;;
14883;SDS011;7534;50.762;7.000;2023-03-01T03:53:21;11.23;;;7.83;;
14883;SDS011;7534;50.762;7.000;2023-03-01T03:55:49;12.13;;;8.23;;
14883;SDS011;7534;50.762;7.000;2023-03-01T03:58:16;12.70;;;8.17;;
14883;SDS011;7534;50.762;7.000;2023-03-01T04:00:44;11.90;;;8.00;;
14883;SDS011;7534;50.762;7.000;2023-03-01T04:03:13;13.93;;;8.17;;
14883;SDS011;7534;50.762;7.000;2023-03-01T04:05:40;12.80;;;8.20;;
14883;SDS011;7534;50.762;7.000;2023-03-01T04:08:07;14.70;;;8.57;;
14883;SDS011;7534;50.762;7.000;2023-03-01T04:10:35;13.50;;;8.40;;
14883;SDS011;7534;50.762;7.000;2023-03-01T04:13:14;14.77;;;9.07;;
14883;SDS011;7534;50.762;7.000;2023-03-01T04:15:46;13.40;;;8.27;;
14883;SDS011;7534;50.762;7.000;2023-03-01T04:18:16;13.27;;;7.80;;
14883;SDS011;7534;50.762;7.000;2023-03-01T04:20:44;12.07;;;7.97;;
14883;SDS011;7534;50.762;7.000;2023-03-01T04:23:12;14.53;;;8.07;;
14883;SDS011;7534;50.762;7.000;2023-03-01T04:25:52;12.60;;;7.90;;
14883;SDS011;7534;50.762;7.000;2023-03-01T04:28:22;13.77;;;8.13;;
14883;SDS011;7534;50.762;7.000;2023-03-01T04:30:52;12.73;;;8.17;;
14883;SDS011;7534;50.762;7.000;2023-03-01T04:33:20;12.97;;;8.10;;
14883;SDS011;7534;50.762;7.000;2023-03-01T04:35:47;14.67;;;9.00;;
14883;SDS011;7534;50.762;7.000;2023-03-01T04:38:18;13.77;;;8.40;;
14883;SDS011;7534;50.762;7.000;2023-03-01T04:40:44;12.60;;;7.83;;
14883;SDS011;7534;50.762;7.000;2023-03-01T04:43:11;15.00;;;8.33;;
14883;SDS011;7534;50.762;7.000;2023-03-01T04:45:40;11.67;;;7.97;;
14883;SDS011;7534;50.762;7.000;2023-03-01T04:48:06;14.80;;;8.20;;
14883;SDS011;7534;50.762;7.000;2023-03-01T04:50:32;14.83;;;8.33;;
14883;SDS011;7534;50.762;7.000;2023-03-01T04:52:58;13.90;;;7.90;;
14883;SDS011;7534;50.762;7.000;2023-03-01T04:55:25;13.10;;;8.50;;
14883;SDS011;7534;50.762;7.000;2023-03-01T04:57:51;16.40;;;8.57;;
14883;SDS011;7534;50.762;7.000;2023-03-01T05:00:18;12.60;;;8.23;;
14883;SDS011;7534;50.762;7.000;2023-03-01T05:05:24;14.00;;;8.13;;
14883;SDS011;7534;50.762;7.000;2023-03-01T05:08:00;12.90;;;8.23;;
14883;SDS011;7534;50.762;7.000;2023-03-01T05:10:32;13.10;;;8.33;;
14883;SDS011;7534;50.762;7.000;2023-03-01T05:13:01;13.17;;;7.77;;
14883;SDS011;7534;50.762;7.000;2023-03-01T05:15:29;14.43;;;8.70;;
14883;SDS011;7534;50.762;7.000;2023-03-01T05:17:57;13.20;;;8.07;;
14883;SDS011;7534;50.762;7.000;2023-03-01T05:20:28;14.23;;;8.33;;
14883;SDS011;7534;50.762;7.000;2023-03-01T05:22:56;15.33;;;8.70;;
14883;SDS011;7534;50.762;7.000;2023-03-01T05:25:24;15.20;;;8.20;;
14883;SDS011;7534;50.762;7.000;2023-03-01T05:27:50;13.97;;;7.87;;
14883;SDS011;7534;50.762;7.000;2023-03-01T05:30:16;13.40;;;7.57;;
14883;SDS011;7534;50.762;7.000;2023-03-01T05:32:44;12.40;;;7.87;;
14883;SDS011;7534;50.762;7.000;2023-03-01T05:35:20;13.43;;;7.90;;
14883;SDS011;7534;50.762;7.000;2023-03-01T05:37:47;13.93;;;8.27;;
14883;SDS011;7534;50.762;7.000;2023-03-01T05:40:15;13.93;;;8.73;;
14883;SDS011;7534;50.762;7.000;2023-03-01T05:42:48;14.90;;;8.53;;
14883;SDS011;7534;50.762;7.000;2023-03-01T05:45:19;13.97;;;8.47;;
14883;SDS011;7534;50.762;7.000;2023-03-01T05:47:46;15.83;;;8.67;;
14883;SDS011;7534;50.762;7.000;2023-03-01T05:50:15;15.77;;;8.47;;
14883;SDS011;7534;50.762;7.000;2023-03-01T05:52:49;15.87;;;9.20;;
14883;SDS011;7534;50.762;7.000;2023-03-01T05:55:27;14.37;;;8.20;;
14883;SDS011;7534;50.762;7.000;2023-03-01T05:57:55;14.77;;;8.90;;
14883;SDS011;7534;50.762;7.000;2023-03-01T06:00:23;15.70;;;8.97;;
14883;SDS011;7534;50.762;7.000;2023-03-01T06:02:49;18.57;;;10.37;;
14883;SDS011;7534;50.762;7.000;2023-03-01T06:05:16;19.27;;;9.17;;
14883;SDS011;7534;50.762;7.000;2023-03-01T06:07:42;18.27;;;9.10;;
14883;SDS011;7534;50.762;7.000;2023-03-01T06:10:09;14.00;;;8.93;;
14883;SDS011;7534;50.762;7.000;2023-03-01T06:12:37;15.57;;;8.57;;
14883;SDS011;7534;50.762;7.000;2023-03-01T06:15:05;14.70;;;8.90;;
14883;SDS011;7534;50.762;7.000;2023-03-01T06:17:33;16.83;;;9.23;;
14883;SDS011;7534;50.762;7.000;2023-03-01T06:20:02;15.93;;;9.13;;
14883;SDS011;7534;50.762;7.000;2023-03-01T06:22:33;16.27;;;9.13;;
14883;SDS011;7534;50.762;7.000;2023-03-01T06:24:59;13.90;;;8.87;;
14883;SDS011;7534;50.762;7.000;2023-03-01T06:27:24;15.67;;;9.27;;
14883;SDS011;7534;50.762;7.000;2023-03-01T06:29:50;14.57;;;9.23;;
14883;SDS011;7534;50.762;7.000;2023-03-01T06:32:16;15.83;;;9.57;;
14883;SDS011;7534;50.762;7.000;2023-03-01T06:34:41;16.13;;;9.63;;
14883;SDS011;7534;50.762;7.000;2023-03-01T06:37:07;15.70;;;9.40;;
14883;SDS011;7534;50.762;7.000;2023-03-01T06:39:33;15.00;;;9.07;;
14883;SDS011;7534;50.762;7.000;2023-03-01T06:41:59;18.10;;;9.83;;
14883;SDS011;7534;50.762;7.000;2023-03-01T06:44:25;19.57;;;9.43;;
14883;SDS011;7534;50.762;7.000;2023-03-01T06:46:51;16.40;;;9.63;;
14883;SDS011;7534;50.762;7.000;2023-03-01T06:49:17;16.17;;;10.13;;
14883;SDS011;7534;50.762;7.000;2023-03-01T06:51:44;26.00;;;13.57;;
14883;SDS011;7534;50.762;7.000;2023-03-01T06:54:11;30.43;;;15.07;;
14883;SDS011;7534;50.762;7.000;2023-03-01T06:56:37;29.63;;;14.50;;
14883;SDS011;7534;50.762;7.000;2023-03-01T06:59:04;31.37;;;14.93;;
14883;SDS011;7534;50.762;7.000;2023-03-01T07:01:30;27.63;;;14.53;;
14883;SDS011;7534;50.762;7.000;2023-03-01T07:03:56;27.47;;;15.47;;
14883;SDS011;7534;50.762;7.000;2023-03-01T07:06:22;29.23;;;15.23;;
14883;SDS011;7534;50.762;7.000;2023-03-01T07:08:48;26.80;;;15.47;;
14883;SDS011;7534;50.762;7.000;2023-03-01T07:11:14;32.37;;;16.17;;
14883;SDS011;7534;50.762;7.000;2023-03-01T07:13:40;29.13;;;16.00;;
14883;SDS011;7534;50.762;7.000;2023-03-01T07:16:06;27.00;;;15.13;;
14883;SDS011;7534;50.762;7.000;2023-03-01T07:18:33;27.73;;;15.47;;
14883;SDS011;7534;50.762;7.000;2023-03-01T07:21:03;28.60;;;15.73;;
14883;SDS011;7534;50.762;7.000;2023-03-01T07:23:31;23.23;;;13.93;;
14883;SDS011;7534;50.762;7.000;2023-03-01T07:25:56;24.27;;;14.30;;
14883;SDS011;7534;50.762;7.000;2023-03-01T07:28:23;21.13;;;12.20;;
14883;SDS011;7534;50.762;7.000;2023-03-01T07:30:49;18.67;;;11.50;;
14883;SDS011;7534;50.762;7.000;2023-03-01T07:33:15;16.27;;;11.27;;
14883;SDS011;7534;50.762;7.000;2023-03-01T07:35:41;18.17;;;11.83;;
14883;SDS011;7534;50.762;7.000;2023-03-01T07:38:07;13.30;;;10.20;;
14883;SDS011;7534;50.762;7.000;2023-03-01T07:40:33;11.77;;;9.40;;
14883;SDS011;7534;50.762;7.000;2023-03-01T07:42:59;12.03;;;8.97;;
14883;SDS011;7534;50.762;7.000;2023-03-01T07:45:26;13.67;;;9.87;;
14883;SDS011;7534;50.762;7.000;2023-03-01T07:47:52;13.30;;;9.53;;
14883;SDS011;7534;50.762;7.000;2023-03-01T07:50:19;11.90;;;9.50;;
14883;SDS011;7534;50.762;7.000;2023-03-01T07:52:49;14.45;;;9.80;;
14883;SDS011;7534;50.762;7.000;2023-03-01T07:55:15;10.70;;;9.60;;
14883;SDS011;7534;50.762;7.000;2023-03-01T07:57:41;11.50;;;10.25;;
14883;SDS011;7534;50.762;7.000;2023-03-01T08:00:09;11.93;;;10.65;;
14883;SDS011;7534;50.762;7.000;2023-03-01T08:02:36;14.05;;;12.55;;
14883;SDS011;7534;50.762;7.000;2023-03-01T08:05:02;11.52;;;10.30;;
14883;SDS011;7534;50.762;7.000;2023-03-01T08:07:30;12.82;;;11.52;;
14883;SDS011;7534;50.762;7.000;2023-03-01T08:09:55;12.43;;;11.13;;
14883;SDS011;7534;50.762;7.000;2023-03-01T08:12:21;11.77;;;9.82;;
14883;SDS011;7534;50.762;7.000;2023-03-01T08:14:47;12.60;;;10.52;;
14883;SDS011;7534;50.762;7.000;2023-03-01T08:17:13;10.80;;;9.70;;
14883;SDS011;7534;50.762;7.000;2023-03-01T08:19:39;10.93;;;9.90;;
14883;SDS011;7534;50.762;7.000;2023-03-01T08:22:05;13.73;;;10.87;;
14883;SDS011;7534;50.762;7.000;2023-03-01T08:24:30;12.03;;;10.67;;
14883;SDS011;7534;50.762;7.000;2023-03-01T08:26:56;13.30;;;10.90;;
14883;SDS011;7534;50.762;7.000;2023-03-01T08:29:22;11.50;;;9.37;;
14883;SDS011;7534;50.762;7.000;2023-03-01T08:31:49;11.50;;;10.10;;
14883;SDS011;7534;50.762;7.000;2023-03-01T08:34:16;11.00;;;9.90;;
14883;SDS011;7534;50.762;7.000;2023-03-01T08:36:44;10.00;;;9.00;;
14883;SDS011;7534;50.762;7.000;2023-03-01T08:39:12;11.83;;;9.83;;
14883;SDS011;7534;50.762;7.000;2023-03-01T08:41:41;10.40;;;9.13;;
14883;SDS011;7534;50.762;7.000;2023-03-01T08:44:07;11.60;;;10.20;;
14883;SDS011;7534;50.762;7.000;2023-03-01T08:46:36;11.43;;;10.10;;
14883;SDS011;7534;50.762;7.000;2023-03-01T08:49:05;12.57;;;9.90;;
14883;SDS011;7534;50.762;7.000;2023-03-01T08:51:40;11.87;;;9.57;;
14883;SDS011;7534;50.762;7.000;2023-03-01T08:54:10;14.43;;;10.33;;
14883;SDS011;7534;50.762;7.000;2023-03-01T08:56:41;10.73;;;9.30;;
14883;SDS011;7534;50.762;7.000;2023-03-01T08:59:08;13.20;;;9.90;;
14883;SDS011;7534;50.762;7.000;2023-03-01T09:01:35;12.53;;;10.27;;
14883;SDS011;7534;50.762;7.000;2023-03-01T09:04:06;15.17;;;10.00;;
14883;SDS011;7534;50.762;7.000;2023-03-01T09:06:35;13.50;;;10.10;;
14883;SDS011;7534;50.762;7.000;2023-03-01T09:09:03;12.40;;;9.93;;
14883;SDS011;7534;50.762;7.000;2023-03-01T09:11:31;13.53;;;9.87;;
14883;SDS011;7534;50.762;7.000;2023-03-01T09:13:58;12.33;;;9.33;;
14883;SDS011;7534;50.762;7.000;2023-03-01T09:16:24;12.53;;;9.77;;
14883;SDS011;7534;50.762;7.000;2023-03-01T09:18:53;11.83;;;10.63;;
14883;SDS011;7534;50.762;7.000;2023-03-01T10:13:13;12.30;;;11.00;;
14883;SDS011;7534;50.762;7.000;2023-03-01T10:15:51;12.07;;;10.77;;
14883;SDS011;7534;50.762;7.000;2023-03-01T10:18:26;13.60;;;10.13;;
14883;SDS011;7534;50.762;7.000;2023-03-01T10:21:00;12.53;;;10.10;;
14883;SDS011;7534;50.762;7.000;2023-03-01T10:23:49;11.23;;;9.57;;
14883;SDS011;7534;50.762;7.000;2023-03-01T10:26:25;12.70;;;10.20;;
14883;SDS011;7534;50.762;7.000;2023-03-01T10:29:09;11.20;;;9.20;;
14883;SDS011;7534;50.762;7.000;2023-03-01T10:43:25;12.27;;;9.23;;
14883;SDS011;7534;50.762;7.000;2023-03-01T11:59:13;10.97;;;7.87;;
14883;SDS011;7534;50.762;7.000;2023-03-01T12:11:07;10.60;;;8.20;;
14883;SDS011;7534;50.762;7.000;2023-03-01T12:25:43;9.87;;;8.23;;
14883;SDS011;7534;50.762;7.000;2023-03-01T12:28:32;12.60;;;8.67;;
14883;SDS011;7534;50.762;7.000;2023-03-01T12:31:44;11.67;;;9.37;;
14883;SDS011;7534;50.762;7.000;2023-03-01T12:38:07;10.17;;;8.77;;
14883;SDS011;7534;50.762;7.000;2023-03-01T12:43:58;9.93;;;8.60;;
14883;SDS011;7534;50.762;7.000;2023-03-01T12:49:34;10.83;;;8.07;;
14883;SDS011;7534;50.762;7.000;2023-03-01T12:52:11;10.53;;;9.00;;
14883;SDS011;7534;50.762;7.000;2023-03-01T12:55:02;12.50;;;8.77;;
14883;SDS011;7534;50.762;7.000;2023-03-01T12:58:00;10.37;;;7.97;;
14883;SDS011;7534;50.762;7.000;2023-03-01T13:06:20;10.77;;;8.20;;
14883;SDS011;7534;50.762;7.000;2023-03-01T13:09:24;10.63;;;8.20;;
14883;SDS011;7534;50.762;7.000;2023-03-01T13:17:48;8.07;;;7.17;;
14883;SDS011;7534;50.762;7.000;2023-03-01T13:20:19;9.30;;;7.23;;
14883;SDS011;7534;50.762;7.000;2023-03-01T13:23:00;10.37;;;7.07;;
14883;SDS011;7534;50.762;7.000;2023-03-01T13:25:31;7.50;;;6.30;;
14883;SDS011;7534;50.762;7.000;2023-03-01T13:28:35;8.07;;;6.90;;
14883;SDS011;7534;50.762;7.000;2023-03-01T13:31:08;9.10;;;7.20;;
14883;SDS011;7534;50.762;7.000;2023-03-01T13:33:58;9.15;;;7.90;;
14883;SDS011;7534;50.762;7.000;2023-03-01T13:46:51;9.63;;;7.57;;
14883;SDS011;7534;50.762;7.000;2023-03-01T13:49:50;10.77;;;7.10;;
14883;SDS011;7534;50.762;7.000;2023-03-01T13:52:40;9.03;;;7.20;;
14883;SDS011;7534;50.762;7.000;2023-03-01T13:58:32;9.10;;;6.27;;
14883;SDS011;7534;50.762;7.000;2023-03-01T14:07:19;9.13;;;6.67;;
14883;SDS011;7534;50.762;7.000;2023-03-01T14:09:51;10.47;;;7.23;;
14883;SDS011;7534;50.762;7.000;2023-03-01T14:15:29;9.10;;;7.03;;
14883;SDS011;7534;50.762;7.000;2023-03-01T14:18:14;9.80;;;7.40;;
14883;SDS011;7534;50.762;7.000;2023-03-01T14:20:54;8.73;;;6.87;;
14883;SDS011;7534;50.762;7.000;2023-03-01T14:23:21;10.37;;;6.83;;
14883;SDS011;7534;50.762;7.000;2023-03-01T14:25:49;8.47;;;6.07;;
14883;SDS011;7534;50.762;7.000;2023-03-01T14:28:29;7.30;;;6.20;;
14883;SDS011;7534;50.762;7.000;2023-03-01T14:31:02;7.60;;;6.27;;
14883;SDS011;7534;50.762;7.000;2023-03-01T14:33:29;7.70;;;5.53;;
14883;SDS011;7534;50.762;7.000;2023-03-01T14:35:59;7.27;;;5.70;;
14883;SDS011;7534;50.762;7.000;2023-03-01T14:38:45;7.30;;;5.87;;
14883;SDS011;7534;50.762;7.000;2023-03-01T14:41:13;7.70;;;6.03;;
14883;SDS011;7534;50.762;7.000;2023-03-01T14:43:44;9.10;;;6.20;;
14883;SDS011;7534;50.762;7.000;2023-03-01T14:46:51;10.57;;;7.97;;
14883;SDS011;7534;50.762;7.000;2023-03-01T14:49:10;7.00;;;6.20;;
14883;SDS011;7534;50.762;7.000;2023-03-01T14:51:53;6.90;;;6.20;;
14883;SDS011;7534;50.762;7.000;2023-03-01T14:54:43;7.10;;;6.40;;
14883;SDS011;7534;50.762;7.000;2023-03-01T14:57:15;7.17;;;6.37;;
14883;SDS011;7534;50.762;7.000;2023-03-01T14:59:46;7.93;;;6.17;;
14883;SDS011;7534;50.762;7.000;2023-03-01T15:02:16;7.10;;;6.30;;
14883;SDS011;7534;50.762;7.000;2023-03-01T15:04:52;7.93;;;6.33;;
14883;SDS011;7534;50.762;7.000;2023-03-01T15:07:21;9.47;;;6.83;;
14883;SDS011;7534;50.762;7.000;2023-03-01T15:09:52;7.93;;;6.80;;
14883;SDS011;7534;50.762;7.000;2023-03-01T15:12:52;8.50;;;6.90;;
14883;SDS011;7534;50.762;7.000;2023-03-01T15:18:14;8.63;;;6.90;;
14883;SDS011;7534;50.762;7.000;2023-03-01T15:20:41;11.00;;;6.73;;
14883;SDS011;7534;50.762;7.000;2023-03-01T15:23:12;9.10;;;6.77;;
14883;SDS011;7534;50.762;7.000;2023-03-01T15:25:47;7.87;;;6.90;;
14883;SDS011;7534;50.762;7.000;2023-03-01T15:28:21;10.53;;;7.60;;
14883;SDS011;7534;50.762;7.000;2023-03-01T15:33:42;7.27;;;6.50;;
14883;SDS011;7534;50.762;7.000;2023-03-01T15:42:02;8.00;;;5.77;;
14883;SDS011;7534;50.762;7.000;2023-03-01T15:44:35;6.83;;;5.67;;
14883;SDS011;7534;50.762;7.000;2023-03-01T15:47:25;8.63;;;5.60;;
14883;SDS011;7534;50.762;7.000;2023-03-01T15:49:54;27.47;;;7.93;;
14883;SDS011;7534;50.762;7.000;2023-03-01T15:52:24;11.53;;;7.10;;
14883;SDS011;7534;50.762;7.000;2023-03-01T15:54:55;8.53;;;6.23;;
14883;SDS011;7534;50.762;7.000;2023-03-01T15:57:27;9.77;;;7.30;;
14883;SDS011;7534;50.762;7.000;2023-03-01T15:59:53;8.20;;;6.47;;
14883;SDS011;7534;50.762;7.000;2023-03-01T16:02:20;8.17;;;6.07;;
14883;SDS011;7534;50.762;7.000;2023-03-01T16:04:48;14.23;;;9.20;;
14883;SDS011;7534;50.762;7.000;2023-03-01T16:07:13;8.97;;;6.60;;
14883;SDS011;7534;50.762;7.000;2023-03-01T16:09:39;10.90;;;8.03;;
14883;SDS011;7534;50.762;7.000;2023-03-01T16:12:05;9.43;;;7.30;;
14883;SDS011;7534;50.762;7.000;2023-03-01T16:14:38;9.87;;;7.20;;
14883;SDS011;7534;50.762;7.000;2023-03-01T16:17:04;12.53;;;9.77;;
14883;SDS011;7534;50.762;7.000;2023-03-01T16:19:30;11.83;;;8.17;;
14883;SDS011;7534;50.762;7.000;2023-03-01T16:21:56;11.50;;;8.97;;
14883;SDS011;7534;50.762;7.000;2023-03-01T16:24:21;12.23;;;8.43;;
14883;SDS011;7534;50.762;7.000;2023-03-01T16:26:47;17.33;;;9.40;;
14883;SDS011;7534;50.762;7.000;2023-03-01T16:29:13;11.93;;;7.97;;
14883;SDS011;7534;50.762;7.000;2023-03-01T16:31:39;19.43;;;10.90;;
14883;SDS011;7534;50.762;7.000;2023-03-01T16:34:05;14.73;;;8.43;;
14883;SDS011;7534;50.762;7.000;2023-03-01T16:36:30;8.90;;;7.07;;
14883;SDS011;7534;50.762;7.000;2023-03-01T16:38:58;12.00;;;8.70;;
14883;SDS011;7534;50.762;7.000;2023-03-01T16:41:28;11.53;;;6.87;;
14883;SDS011;7534;50.762;7.000;2023-03-01T16:43:54;8.37;;;6.60;;
14883;SDS011;7534;50.762;7.000;2023-03-01T16:46:21;9.43;;;6.10;;
14883;SDS011;7534;50.762;7.000;2023-03-01T16:48:53;11.97;;;6.63;;
14883;SDS011;7534;50.762;7.000;2023-03-01T16:51:23;8.50;;;6.50;;
14883;SDS011;7534;50.762;7.000;2023-03-01T16:53:50;8.93;;;6.70;;
14883;SDS011;7534;50.762;7.000;2023-03-01T16:56:16;9.60;;;6.90;;
14883;SDS011;7534;50.762;7.000;2023-03-01T16:58:43;9.40;;;6.30;;
14883;SDS011;7534;50.762;7.000;2023-03-01T17:01:13;8.37;;;6.10;;
14883;SDS011;7534;50.762;7.000;2023-03-01T17:03:45;7.83;;;6.00;;
14883;SDS011;7534;50.762;7.000;2023-03-01T17:06:14;8.83;;;6.03;;
14883;SDS011;7534;50.762;7.000;2023-03-01T17:08:45;8.43;;;6.50;;
14883;SDS011;7534;50.762;7.000;2023-03-01T17:11:12;9.43;;;6.07;;
14883;SDS011;7534;50.762;7.000;2023-03-01T17:13:42;9.57;;;6.40;;
14883;SDS011;7534;50.762;7.000;2023-03-01T17:16:10;9.90;;;6.30;;
14883;SDS011;7534;50.762;7.000;2023-03-01T17:18:40;7.70;;;5.60;;
14883;SDS011;7534;50.762;7.000;2023-03-01T17:21:06;8.43;;;5.23;;
14883;SDS011;7534;50.762;7.000;2023-03-01T17:23:32;8.27;;;5.37;;
14883;SDS011;7534;50.762;7.000;2023-03-01T17:26:00;7.00;;;5.20;;
14883;SDS011;7534;50.762;7.000;2023-03-01T17:28:28;7.27;;;5.63;;
14883;SDS011;7534;50.762;7.000;2023-03-01T17:30:56;6.23;;;4.77;;
14883;SDS011;7534;50.762;7.000;2023-03-01T17:33:31;6.03;;;5.10;;
14883;SDS011;7534;50.762;7.000;2023-03-01T17:35:59;6.57;;;5.13;;
14883;SDS011;7534;50.762;7.000;2023-03-01T17:38:25;6.93;;;5.20;;
14883;SDS011;7534;50.762;7.000;2023-03-01T17:40:52;6.70;;;5.27;;
14883;SDS011;7534;50.762;7.000;2023-03-01T17:43:17;8.70;;;5.23;;
14883;SDS011;7534;50.762;7.000;2023-03-01T17:45:44;8.50;;;5.20;;
14883;SDS011;7534;50.762;7.000;2023-03-01T17:48:15;8.60;;;5.63;;
14883;SDS011;7534;50.762;7.000;2023-03-01T17:50:41;7.10;;;5.13;;
14883;SDS011;7534;50.762;7.000;2023-03-01T17:53:07;6.83;;;5.17;;
14883;SDS011;7534;50.762;7.000;2023-03-01T17:55:38;7.43;;;5.30;;
14883;SDS011;7534;50.762;7.000;2023-03-01T17:58:06;8.90;;;5.70;;
14883;SDS011;7534;50.762;7.000;2023-03-01T18:00:33;8.10;;;5.50;;
14883;SDS011;7534;50.762;7.000;2023-03-01T18:03:00;10.03;;;5.80;;
14883;SDS011;7534;50.762;7.000;2023-03-01T18:05:26;10.37;;;6.10;;
14883;SDS011;7534;50.762;7.000;2023-03-01T18:07:57;9.53;;;6.20;;
14883;SDS011;7534;50.762;7.000;2023-03-01T18:10:25;11.03;;;6.33;;
14883;SDS011;7534;50.762;7.000;2023-03-01T18:12:51;8.57;;;5.77;;
14883;SDS011;7534;50.762;7.000;2023-03-01T18:15:16;8.00;;;5.33;;
14883;SDS011;7534;50.762;7.000;2023-03-01T18:17:43;12.37;;;6.37;;
14883;SDS011;7534;50.762;7.000;2023-03-01T18:20:11;12.03;;;5.93;;
14883;SDS011;7534;50.762;7.000;2023-03-01T18:22:41;8.87;;;6.00;;
14883;SDS011;7534;50.762;7.000;2023-03-01T18:25:07;8.23;;;5.53;;
14883;SDS011;7534;50.762;7.000;2023-03-01T18:27:33;7.80;;;5.37;;
14883;SDS011;7534;50.762;7.000;2023-03-01T18:30:00;7.07;;;5.27;;
14883;SDS011;7534;50.762;7.000;2023-03-01T18:32:28;10.53;;;5.50;;
14883;SDS011;7534;50.762;7.000;2023-03-01T18:34:53;9.80;;;5.40;;
14883;SDS011;7534;50.762;7.000;2023-03-01T18:37:19;9.67;;;6.10;;
14883;SDS011;7534;50.762;7.000;2023-03-01T18:39:45;8.90;;;5.97;;
14883;SDS011;7534;50.762;7.000;2023-03-01T18:42:15;10.13;;;5.87;;
14883;SDS011;7534;50.762;7.000;2023-03-01T18:44:40;8.07;;;5.40;;
14883;SDS011;7534;50.762;7.000;2023-03-01T18:47:06;8.07;;;5.33;;